Time;durP1;ratioP1;P1;durP2;ratioP2;P2;SDS_P1;SDS_P2;PMS_P1;PMS_P2;Temp;Humidity;BMP_temperature;BMP_pressure;BME280_temperature;BME280_humidity;BME280_pressure;Samples;Min_cycle;Max_cycle;Signal;HPM_P1;HPM_P2
2020/12/30 00:00:15;;;;;;;3.00;2.70;;;;;;;19.12;46.48;99087.13;5077301;28;20630;-61
2020/12/30 00:02:41;;;;;;;3.60;2.63;;;;;;;19.07;46.94;99090.50;5094107;28;20186;-61
2020/12/30 00:05:09;;;;;;;3.27;2.80;;;;;;;19.03;46.69;99097.38;5094974;28;20183;-61
2020/12/30 00:07:35;;;;;;;3.93;2.67;;;;;;;18.98;47.00;99086.34;5094857;28;20704;-62
2020/12/30 00:10:03;;;;;;;2.97;2.60;;;;;;;18.93;46.73;99091.56;5094760;28;20237;-61
2020/12/30 00:12:29;;;;;;;2.57;2.37;;;;;;;18.90;47.06;99094.66;5093836;28;20484;-62
2020/12/30 00:14:56;;;;;;;3.30;2.80;;;;;;;18.88;46.94;99091.34;5094765;28;20189;-63
2020/12/30 00:17:22;;;;;;;2.80;2.60;;;;;;;18.81;47.23;99085.94;5094574;28;20175;-61
2020/12/30 00:19:48;;;;;;;2.87;2.57;;;;;;;18.77;46.86;99081.97;5094542;28;20635;-61
2020/12/30 00:22:14;;;;;;;2.70;2.50;;;;;;;18.74;46.92;99079.69;5094601;28;20622;-61
2020/12/30 00:24:41;;;;;;;2.97;2.67;;;;;;;18.76;46.97;99087.59;5093498;28;20193;-61
2020/12/30 00:27:07;;;;;;;3.60;2.80;;;;;;;18.74;47.14;99084.28;5094506;28;20179;-61
2020/12/30 00:29:33;;;;;;;3.10;2.90;;;;;;;18.68;46.79;99083.22;5094300;28;20234;-61
2020/12/30 00:31:59;;;;;;;2.90;2.57;;;;;;;18.64;47.30;99081.97;5076685;28;20183;-61
2020/12/30 00:34:25;;;;;;;3.03;2.73;;;;;;;18.60;46.93;99077.97;5094337;28;20194;-64
2020/12/30 00:36:51;;;;;;;3.43;2.30;;;;;;;18.56;47.35;99088.41;5094267;28;20182;-67
2020/12/30 00:39:17;;;;;;;2.90;2.60;;;;;;;18.49;47.30;99089.44;5094620;28;20218;-61
2020/12/30 00:41:44;;;;;;;3.03;2.60;;;;;;;18.50;46.96;99086.53;5094074;28;20239;-61
2020/12/30 00:44:10;;;;;;;2.90;2.63;;;;;;;18.45;47.38;99097.13;5093569;28;20186;-65
2020/12/30 00:46:36;;;;;;;3.43;2.80;;;;;;;18.41;47.41;99096.72;5094082;28;20191;-59
2020/12/30 00:49:02;;;;;;;2.53;2.33;;;;;;;18.41;47.04;99090.47;5094013;28;20209;-59
2020/12/30 00:51:28;;;;;;;2.77;2.57;;;;;;;18.35;47.30;99094.00;5093957;28;20199;-60
2020/12/30 00:53:54;;;;;;;2.43;2.23;;;;;;;18.36;47.44;99093.81;5094003;28;20636;-59
2020/12/30 00:56:20;;;;;;;2.43;2.23;;;;;;;18.31;47.39;99106.28;5093965;28;20194;-60
2020/12/30 00:58:46;;;;;;;2.90;2.70;;;;;;;18.30;47.24;99101.91;5093814;28;20207;-60
2020/12/30 01:01:13;;;;;;;2.40;2.20;;;;;;;18.25;47.21;99102.53;5093845;28;20194;-61
2020/12/30 01:03:39;;;;;;;2.70;2.50;;;;;;;18.22;47.29;99107.53;5092912;28;20210;-61
2020/12/30 01:06:06;;;;;;;2.77;2.50;;;;;;;18.18;47.65;99100.84;5093764;28;20183;-61
2020/12/30 01:08:32;;;;;;;2.50;2.30;;;;;;;18.15;47.60;99106.66;5092876;28;20203;-59
2020/12/30 01:10:58;;;;;;;2.50;2.20;;;;;;;18.11;47.78;99117.09;5092686;28;20179;-65
2020/12/30 01:13:24;;;;;;;2.83;2.63;;;;;;;18.09;47.36;99114.56;5093597;28;20666;-65
2020/12/30 01:15:50;;;;;;;3.53;2.40;;;;;;;18.06;47.70;99114.16;5093495;28;20194;-65
2020/12/30 01:18:17;;;;;;;3.33;2.40;;;;;;;18.04;47.71;99117.06;5093426;28;20218;-66
2020/12/30 01:20:43;;;;;;;2.40;2.20;;;;;;;18.03;47.33;99120.81;5092577;28;20202;-60
2020/12/30 01:23:09;;;;;;;2.37;2.20;;;;;;;18.03;47.14;99122.69;5092477;28;20217;-60
2020/12/30 01:25:35;;;;;;;2.43;2.23;;;;;;;17.97;47.69;99118.91;5092477;28;20202;-61
2020/12/30 01:28:01;;;;;;;2.80;2.30;;;;;;;17.94;47.38;99124.72;5093287;28;20313;-59
2020/12/30 01:30:27;;;;;;;2.37;2.17;;;;;;;17.91;47.72;99122.44;5075383;28;20191;-60
2020/12/30 01:32:53;;;;;;;2.50;2.30;;;;;;;17.90;47.90;99125.34;5093186;28;20255;-60
2020/12/30 01:35:19;;;;;;;2.77;2.47;;;;;;;17.86;47.87;99118.66;5093218;28;20186;-66
2020/12/30 01:37:45;;;;;;;2.43;1.87;;;;;;;17.85;47.28;99134.06;5092105;28;20225;-65
2020/12/30 01:40:11;;;;;;;2.20;2.07;;;;;;;17.79;47.94;99134.88;5075464;28;20516;-59
2020/12/30 01:42:44;;;;;;;2.27;2.07;;;;;;;17.76;47.87;99138.00;5092114;28;20187;-59
2020/12/30 01:45:11;;;;;;;2.50;2.27;;;;;;;17.75;47.99;99139.03;5059200;28;20187;-60
2020/12/30 01:47:37;;;;;;;2.30;2.10;;;;;;;17.73;48.08;99144.63;5090826;28;20211;-61
2020/12/30 01:50:04;;;;;;;2.50;2.30;;;;;;;17.69;47.91;99142.53;5091866;28;20327;-65
2020/12/30 01:52:30;;;;;;;2.50;2.30;;;;;;;17.62;48.15;99142.47;5092893;28;20274;-65
2020/12/30 01:54:57;;;;;;;2.17;1.97;;;;;;;17.59;47.43;99147.44;5085339;28;20410;-61
2020/12/30 01:57:23;;;;;;;2.43;2.23;;;;;;;17.57;47.75;99150.34;5071338;28;20196;-62
2020/12/30 01:59:49;;;;;;;2.10;2.00;;;;;;;17.58;48.03;99148.47;5054992;28;20697;-67
2020/12/30 02:02:15;;;;;;;2.40;2.20;;;;;;;17.57;47.78;99149.53;5077034;28;20195;-65
2020/12/30 02:05:00;;;;;;;2.40;2.20;;;;;;;17.55;47.99;99154.28;5091049;28;20203;-64
2020/12/30 02:07:26;;;;;;;2.20;2.10;;;;;;;17.54;47.67;99153.47;5092411;28;20614;-65
2020/12/30 02:09:53;;;;;;;2.50;2.30;;;;;;;17.55;48.33;99152.44;5092450;28;20183;-61
2020/12/30 02:12:19;;;;;;;2.60;2.40;;;;;;;17.56;48.04;99150.56;5091555;28;20190;-65
2020/12/30 02:14:45;;;;;;;2.30;2.10;;;;;;;17.62;48.04;99152.47;5092624;28;20304;-61
2020/12/30 02:17:12;;;;;;;2.20;1.90;;;;;;;17.67;48.13;99148.13;5088627;28;20194;-61
2020/12/30 02:19:38;;;;;;;2.40;2.20;;;;;;;17.76;48.66;99151.53;5092083;28;20221;-61
2020/12/30 02:22:04;;;;;;;3.00;2.00;;;;;;;17.86;48.42;99154.69;5091366;28;20195;-61
2020/12/30 02:24:34;;;;;;;1.90;1.80;;;;;;;18.01;48.31;99149.13;5074573;28;20206;-61
2020/12/30 02:27:01;;;;;;;2.23;2.10;;;;;;;18.14;47.66;99154.56;5091330;28;20603;-60
2020/12/30 02:29:31;;;;;;;2.13;1.97;;;;;;;18.24;47.81;99155.03;5074197;28;20203;-65
2020/12/30 02:31:57;;;;;;;1.87;1.77;;;;;;;18.35;47.85;99157.13;5092098;28;20614;-59
2020/12/30 02:34:23;;;;;;;2.20;2.00;;;;;;;18.42;47.65;99157.97;5074321;28;20647;-61
2020/12/30 02:36:49;;;;;;;1.97;1.87;;;;;;;18.53;47.63;99158.44;5091761;28;20193;-60
2020/12/30 02:39:15;;;;;;;2.00;1.90;;;;;;;18.56;47.59;99166.97;5057711;28;20226;-66
2020/12/30 02:41:41;;;;;;;2.00;1.90;;;;;;;18.58;47.15;99161.34;5092091;28;20214;-68
2020/12/30 02:44:08;;;;;;;2.13;1.97;;;;;;;18.59;47.04;99163.03;5092038;28;20678;-68
2020/12/30 02:46:34;;;;;;;2.17;2.07;;;;;;;18.59;47.44;99171.16;5091900;28;20193;-68
2020/12/30 02:49:00;;;;;;;1.97;1.87;;;;;;;18.55;47.19;99173.44;5092223;28;20251;-65
2020/12/30 02:51:26;;;;;;;1.90;1.80;;;;;;;18.53;47.03;99169.28;5091777;28;20187;-68
2020/12/30 02:53:52;;;;;;;1.90;1.73;;;;;;;18.50;47.04;99175.94;5091748;28;20179;-60
2020/12/30 02:56:18;;;;;;;2.00;1.90;;;;;;;18.44;46.98;99176.75;5091880;28;20605;-60
2020/12/30 02:58:47;;;;;;;2.10;2.00;;;;;;;18.41;47.50;99172.56;5091731;28;20239;-60
2020/12/30 03:01:14;;;;;;;2.00;1.90;;;;;;;18.37;47.48;99170.47;5091775;28;20634;-62
2020/12/30 03:03:40;;;;;;;2.23;2.03;;;;;;;18.34;47.38;99177.16;5073968;28;20197;-62
2020/12/30 03:06:06;;;;;;;1.90;1.80;;;;;;;18.31;47.45;99184.84;5091174;28;20191;-62
2020/12/30 03:08:33;;;;;;;2.13;1.93;;;;;;;18.24;47.60;99178.59;5091267;28;20271;-62
2020/12/30 03:10:59;;;;;;;2.20;2.00;;;;;;;18.22;47.59;99177.97;5091479;28;20283;-62
2020/12/30 03:13:25;;;;;;;1.93;1.83;;;;;;;18.16;47.15;99178.75;5090629;28;20185;-62
2020/12/30 03:15:51;;;;;;;1.70;1.60;;;;;;;18.10;47.70;99175.81;5091600;28;20187;-65
2020/12/30 03:18:17;;;;;;;1.90;1.80;;;;;;;18.05;47.41;99178.31;5091404;28;20211;-66
2020/12/30 03:20:43;;;;;;;1.93;1.83;;;;;;;18.02;47.73;99181.41;5091460;28;20183;-66
2020/12/30 03:23:10;;;;;;;2.10;2.00;;;;;;;17.99;47.79;99181.81;5091686;28;20179;-62
2020/12/30 03:25:36;;;;;;;2.13;2.03;;;;;;;17.97;47.75;99189.28;5091506;28;20219;-68
2020/12/30 03:28:02;;;;;;;2.10;2.00;;;;;;;17.93;47.19;99190.72;5091550;28;20209;-68
2020/12/30 03:30:28;;;;;;;2.10;1.90;;;;;;;17.96;47.62;99190.31;5090376;28;20182;-68
2020/12/30 03:32:54;;;;;;;1.87;1.77;;;;;;;17.95;47.58;99187.81;5091274;28;20671;-68
2020/12/30 03:35:24;;;;;;;2.13;2.03;;;;;;;17.95;47.65;99190.53;5091336;28;20191;-68
2020/12/30 03:37:51;;;;;;;1.93;1.80;;;;;;;17.96;47.44;99201.16;5091477;28;20565;-59
2020/12/30 03:40:17;;;;;;;1.90;1.80;;;;;;;17.91;47.10;99194.69;5091458;28;20179;-67
2020/12/30 03:42:43;;;;;;;1.90;1.80;;;;;;;17.87;47.25;99196.94;5091619;28;20213;-68
2020/12/30 03:45:10;;;;;;;1.77;1.67;;;;;;;17.83;47.29;99203.81;5091761;28;20183;-67
2020/12/30 03:47:36;;;;;;;2.00;1.90;;;;;;;17.84;47.22;99204.66;5091116;28;20260;-66
2020/12/30 03:50:02;;;;;;;1.97;1.87;;;;;;;17.85;47.44;99204.44;5090959;28;20198;-67
2020/12/30 03:52:28;;;;;;;1.80;1.70;;;;;;;17.88;47.55;99198.63;5090311;28;20183;-64
2020/12/30 03:54:54;;;;;;;1.67;1.57;;;;;;;17.88;47.86;99203.19;5091127;28;20596;-67
2020/12/30 03:57:20;;;;;;;1.80;1.70;;;;;;;17.91;47.85;99205.50;5090173;28;20198;-67
2020/12/30 03:59:46;;;;;;;1.63;1.53;;;;;;;17.93;47.79;99206.13;5091100;28;20555;-60
2020/12/30 04:02:12;;;;;;;1.87;1.77;;;;;;;17.95;47.48;99204.06;5090167;28;20268;-67
2020/12/30 04:04:38;;;;;;;1.80;1.70;;;;;;;17.95;47.51;99199.47;5091481;28;20230;-59
2020/12/30 04:07:05;;;;;;;1.57;1.47;;;;;;;17.95;47.94;99202.19;5090768;28;20265;-64
2020/12/30 04:09:31;;;;;;;1.70;1.60;;;;;;;17.96;47.43;99211.97;5091170;28;20203;-59
2020/12/30 04:11:57;;;;;;;1.73;1.63;;;;;;;17.94;47.72;99216.75;5091287;28;20183;-61
2020/12/30 04:14:23;;;;;;;1.80;1.70;;;;;;;17.93;47.92;99215.09;5091322;28;20266;-67
2020/12/30 04:16:49;;;;;;;1.80;1.70;;;;;;;17.93;47.77;99214.25;5090991;28;20332;-67
2020/12/30 04:19:15;;;;;;;1.80;1.70;;;;;;;17.90;47.74;99215.50;5093799;28;20211;-59
2020/12/30 04:21:41;;;;;;;1.80;1.70;;;;;;;17.88;47.27;99220.28;5093781;28;20248;-60
2020/12/30 04:24:07;;;;;;;1.77;1.67;;;;;;;17.86;47.44;99225.06;5094601;28;20353;-60
2020/12/30 04:26:33;;;;;;;1.90;1.80;;;;;;;17.84;47.48;99219.00;5060173;28;20247;-62
2020/12/30 04:28:59;;;;;;;1.70;1.60;;;;;;;17.82;47.49;99226.50;5094395;28;20195;-62
2020/12/30 04:31:25;;;;;;;1.80;1.70;;;;;;;17.76;47.55;99227.31;5094253;28;20607;-62
2020/12/30 04:33:51;;;;;;;2.10;1.90;;;;;;;17.73;47.45;99224.97;5094301;28;20225;-62
2020/12/30 04:36:17;;;;;;;1.80;1.70;;;;;;;17.68;47.97;99216.63;5094524;28;20236;-68
2020/12/30 04:38:43;;;;;;;1.73;1.63;;;;;;;17.63;48.07;99224.47;5093290;28;20268;-66
2020/12/30 04:41:11;;;;;;;1.80;1.70;;;;;;;17.62;47.59;99225.50;5094283;28;20193;-68
2020/12/30 04:43:38;;;;;;;1.70;1.60;;;;;;;17.60;48.12;99224.88;5094337;28;20674;-61
2020/12/30 04:46:04;;;;;;;1.80;1.70;;;;;;;17.66;47.57;99221.38;5076547;28;20189;-60
2020/12/30 04:48:32;;;;;;;1.90;1.80;;;;;;;17.74;47.38;99224.78;5093088;28;20639;-60
2020/12/30 04:50:59;;;;;;;1.90;1.80;;;;;;;17.82;47.28;99226.50;5076523;28;20239;-60
2020/12/30 04:53:25;;;;;;;1.90;1.80;;;;;;;17.91;47.80;99227.16;5093235;28;20187;-65
2020/12/30 04:55:51;;;;;;;1.80;1.70;;;;;;;17.98;47.33;99228.03;5093197;28;20767;-68
2020/12/30 04:58:18;;;;;;;1.53;1.43;;;;;;;18.08;47.44;99223.09;5093825;28;20223;-60
2020/12/30 05:00:47;;;;;;;1.77;1.63;;;;;;;18.18;47.29;99230.81;5092983;28;20387;-60
2020/12/30 05:03:13;;;;;;;1.63;1.53;;;;;;;18.30;47.71;99237.34;5093071;28;20209;-66
2020/12/30 05:05:40;;;;;;;1.60;1.50;;;;;;;18.38;47.65;99232.56;5093990;28;20205;-65
2020/12/30 05:08:11;;;;;;;1.67;1.57;;;;;;;18.50;47.16;99226.59;5093668;28;20199;-60
2020/12/30 05:10:38;;;;;;;1.70;1.60;;;;;;;18.56;47.21;99223.88;5092568;28;20707;-60
2020/12/30 05:13:04;;;;;;;1.70;1.60;;;;;;;18.64;47.10;99225.59;5075922;28;20183;-60
2020/12/30 05:15:30;;;;;;;1.60;1.50;;;;;;;18.72;46.92;99224.59;5092756;28;20193;-65
2020/12/30 05:17:56;;;;;;;1.50;1.40;;;;;;;18.75;46.78;99230.44;5093618;28;20247;-62
2020/12/30 05:20:25;;;;;;;1.60;1.50;;;;;;;18.78;46.73;99234.59;5093625;28;20186;-62
2020/12/30 05:22:55;;;;;;;1.60;1.50;;;;;;;18.81;47.12;99234.19;5093579;28;20607;-62
2020/12/30 05:25:26;;;;;;;1.67;1.57;;;;;;;18.81;46.59;99231.47;5092683;28;20187;-60
2020/12/30 05:27:55;;;;;;;1.50;1.40;;;;;;;18.81;46.54;99228.75;5092386;28;20203;-68
2020/12/30 05:30:24;;;;;;;1.67;1.57;;;;;;;18.81;46.86;99243.16;5093151;28;20197;-62
2020/12/30 05:32:54;;;;;;;1.50;1.40;;;;;;;18.80;46.65;99246.91;5093415;28;20183;-65
2020/12/30 05:35:21;;;;;;;1.60;1.50;;;;;;;18.78;46.37;99248.16;5093436;28;20183;-60
2020/12/30 05:37:47;;;;;;;1.90;1.80;;;;;;;18.75;46.66;99254.00;5092163;28;20210;-60
2020/12/30 05:40:24;;;;;;;1.80;1.70;;;;;;;18.72;46.28;99262.53;5075505;28;20175;-68
2020/12/30 05:42:51;;;;;;;1.77;1.67;;;;;;;18.67;46.55;99257.69;5092206;28;20267;-68
2020/12/30 05:45:21;;;;;;;1.90;1.80;;;;;;;18.63;46.73;99264.56;5092998;28;20194;-68
2020/12/30 05:47:51;;;;;;;1.80;1.70;;;;;;;18.56;46.68;99261.81;5092969;28;20598;-68
2020/12/30 05:50:22;;;;;;;1.70;1.60;;;;;;;18.53;46.76;99261.41;5092744;28;20199;-62
2020/12/30 05:52:48;;;;;;;1.57;1.47;;;;;;;18.45;46.80;99265.09;5092186;28;20227;-60
2020/12/30 05:55:14;;;;;;;1.50;1.40;;;;;;;18.38;46.70;99269.66;5091955;28;20191;-62
2020/12/30 05:57:40;;;;;;;1.80;1.67;;;;;;;18.34;46.67;99276.53;5092854;28;20202;-68
2020/12/30 06:00:11;;;;;;;1.80;1.70;;;;;;;18.25;46.63;99269.63;5092793;28;20259;-68
2020/12/30 06:02:44;;;;;;;1.93;1.83;;;;;;;18.17;46.83;99272.47;5092842;28;20186;-68
2020/12/30 06:05:13;;;;;;;1.60;1.50;;;;;;;18.09;46.93;99282.44;5092663;28;20270;-68
2020/12/30 06:07:44;;;;;;;1.50;1.40;;;;;;;18.04;46.99;99284.94;5092729;28;20279;-68
2020/12/30 06:10:15;;;;;;;1.50;1.40;;;;;;;17.99;47.22;99278.44;5092674;28;20737;-61
2020/12/30 06:12:47;;;;;;;1.63;1.53;;;;;;;17.93;47.36;99282.75;5091589;28;20280;-62
2020/12/30 06:15:14;;;;;;;1.70;1.60;;;;;;;17.91;47.03;99279.44;5092601;28;20198;-62
2020/12/30 06:17:51;;;;;;;1.80;1.70;;;;;;;17.62;47.17;99230.91;5074648;28;20211;-62
2020/12/30 06:20:31;;;;;;;1.87;1.77;;;;;;;17.88;47.33;99285.25;5091809;28;20197;-61
2020/12/30 06:22:58;;;;;;;1.80;1.70;;;;;;;17.83;47.19;99287.72;5092473;28;20271;-62
2020/12/30 06:25:25;;;;;;;1.70;1.60;;;;;;;17.85;46.95;99292.91;5091195;28;20526;-65
2020/12/30 06:27:51;;;;;;;1.53;1.43;;;;;;;17.85;47.44;99292.91;5092025;28;20670;-66
2020/12/30 06:30:18;;;;;;;1.70;1.60;;;;;;;17.88;47.30;99301.47;5092013;28;20179;-68
2020/12/30 06:32:44;;;;;;;1.73;1.63;;;;;;;17.89;47.29;99292.31;5091106;28;20277;-68
2020/12/30 06:35:10;;;;;;;1.40;1.30;;;;;;;17.89;47.14;99303.16;5092225;28;20184;-68
2020/12/30 06:37:37;;;;;;;1.50;1.40;;;;;;;17.90;47.50;99302.13;5091194;28;20213;-68
2020/12/30 06:40:26;;;;;;;1.60;1.50;;;;;;;17.90;47.51;99299.41;5092115;28;20187;-62
2020/12/30 06:43:00;;;;;;;1.60;1.50;;;;;;;17.91;47.58;99317.31;5091224;28;20187;-60
2020/12/30 06:45:44;;;;;;;1.70;1.60;;;;;;;17.93;47.27;99315.25;5075296;28;20765;-68
2020/12/30 06:48:11;;;;;;;2.13;1.40;;;;;;;17.95;47.26;99323.16;5090950;28;20199;-68
2020/12/30 06:50:37;;;;;;;1.53;1.43;;;;;;;17.96;47.30;99319.44;5091885;28;20466;-62
2020/12/30 06:53:26;;;;;;;1.20;1.10;;;;;;;17.96;47.18;99330.25;5092036;28;20187;-62
2020/12/30 06:55:53;;;;;;;1.57;1.47;;;;;;;17.96;47.21;99332.97;5091784;28;20183;-62
2020/12/30 06:58:40;;;;;;;1.80;1.70;;;;;;;17.95;47.26;99334.84;5090864;28;20202;-68
2020/12/30 07:01:06;;;;;;;1.73;1.60;;;;;;;17.93;47.57;99334.19;5091749;28;20191;-68
2020/12/30 07:03:32;;;;;;;1.50;1.40;;;;;;;17.91;47.09;99343.56;5090804;28;20606;-68
2020/12/30 07:06:36;;;;;;;1.90;1.80;;;;;;;17.91;47.39;99348.97;5091641;28;20178;-68
2020/12/30 07:09:04;;;;;;;1.60;1.50;;;;;;;17.87;47.73;99356.66;5090663;28;20213;-68
2020/12/30 07:11:36;;;;;;;1.73;1.63;;;;;;;17.88;47.50;99361.03;5091655;28;20183;-68
2020/12/30 07:14:06;;;;;;;1.50;1.40;;;;;;;17.94;47.22;99364.81;5091517;28;20187;-67
2020/12/30 07:16:35;;;;;;;1.43;1.40;;;;;;;18.01;47.36;99363.00;5091578;28;20179;-67
2020/12/30 07:19:08;;;;;;;1.40;1.30;;;;;;;18.05;47.54;99367.81;5091562;28;20275;-67
2020/12/30 07:21:34;;;;;;;1.60;1.50;;;;;;;18.13;47.47;99363.28;5091684;28;20179;-60
2020/12/30 07:24:00;;;;;;;1.70;1.60;;;;;;;18.18;46.93;99371.66;5074100;28;20194;-60
2020/12/30 07:26:26;;;;;;;1.37;1.30;;;;;;;18.24;46.86;99371.72;5074043;28;20191;-59
2020/12/30 07:28:52;;;;;;;1.43;1.33;;;;;;;18.30;46.73;99370.06;5090449;28;20298;-59
2020/12/30 07:31:19;;;;;;;1.70;1.60;;;;;;;18.36;46.89;99377.38;5091345;28;20240;-59
2020/12/30 07:33:46;;;;;;;1.70;1.60;;;;;;;18.39;47.00;99374.28;5090541;28;20193;-65
2020/12/30 07:36:12;;;;;;;1.60;1.50;;;;;;;18.40;47.03;99379.50;5091538;28;20666;-66
2020/12/30 07:38:38;;;;;;;1.60;1.50;;;;;;;18.43;46.65;99386.38;5090413;28;20289;-66
2020/12/30 07:41:08;;;;;;;1.60;1.50;;;;;;;18.48;46.61;99396.66;5070654;28;20596;-67
2020/12/30 07:43:48;;;;;;;1.47;1.37;;;;;;;18.50;46.89;99392.69;5089311;28;20191;-67
2020/12/30 07:46:23;;;;;;;1.60;1.50;;;;;;;18.51;46.79;99394.38;5087667;28;20681;-67
2020/12/30 07:48:49;;;;;;;1.53;1.43;;;;;;;18.52;46.50;99406.88;5091063;28;20212;-67
2020/12/30 07:51:15;;;;;;;1.87;1.77;;;;;;;18.51;46.47;99410.63;5090930;28;20198;-67
2020/12/30 07:53:50;;;;;;;1.33;1.30;;;;;;;18.51;46.86;99405.22;5093346;28;20222;-67
2020/12/30 07:56:26;;;;;;;1.50;1.40;;;;;;;18.50;46.60;99408.97;5094360;28;20178;-67
2020/12/30 07:58:52;;;;;;;1.60;1.50;;;;;;;18.49;46.50;99412.69;5094339;28;20230;-61
2020/12/30 08:01:18;;;;;;;1.60;1.50;;;;;;;18.49;46.52;99425.41;5077586;28;20233;-61
2020/12/30 08:03:45;;;;;;;1.50;1.40;;;;;;;18.46;46.63;99417.69;5077528;28;20409;-64
2020/12/30 08:06:11;;;;;;;1.60;1.50;;;;;;;18.44;46.54;99428.69;5094117;28;20266;-62
2020/12/30 08:08:44;;;;;;;1.37;1.27;;;;;;;18.42;46.35;99438.91;5094885;28;20623;-61
2020/12/30 08:11:10;;;;;;;10.17;9.17;;;;;;;18.31;42.62;99443.00;5094058;28;20247;-61
2020/12/30 08:13:38;;;;;;;14.30;13.00;;;;;;;17.60;40.13;99444.84;5077126;28;20179;-61
2020/12/30 08:16:05;;;;;;;14.43;12.97;;;;;;;17.22;41.06;99449.63;5094010;28;20255;-59
2020/12/30 08:18:31;;;;;;;13.17;11.93;;;;;;;17.16;41.91;99447.69;5093614;28;20332;-59
2020/12/30 08:20:57;;;;;;;12.07;10.87;;;;;;;17.21;42.73;99450.66;5093855;28;20194;-67
2020/12/30 08:23:23;;;;;;;11.67;10.47;;;;;;;17.00;43.40;99416.31;5076905;28;20183;-65
2020/12/30 08:25:49;;;;;;;10.73;9.73;;;;;;;17.34;43.19;99458.94;5094569;28;20267;-61
2020/12/30 08:28:15;;;;;;;9.70;8.80;;;;;;;17.46;43.50;99460.09;5094387;28;20202;-61
2020/12/30 08:30:44;;;;;;;8.83;7.93;;;;;;;17.60;43.55;99465.66;5093578;28;20187;-61
2020/12/30 08:33:11;;;;;;;8.23;7.43;;;;;;;17.73;43.92;99471.22;5093369;28;20194;-62
2020/12/30 08:35:45;;;;;;;7.10;6.50;;;;;;;17.88;43.84;99472.00;5093675;28;20179;-60
2020/12/30 08:38:18;;;;;;;7.30;6.60;;;;;;;18.00;44.43;99470.47;5078209;28;20218;-61
2020/12/30 08:40:47;;;;;;;6.20;5.60;;;;;;;18.12;44.37;99470.75;5094623;28;20190;-60
2020/12/30 08:43:33;;;;;;;6.20;5.60;;;;;;;18.24;44.32;99477.34;5061501;28;20183;-67
2020/12/30 08:46:04;;;;;;;5.40;4.90;;;;;;;18.34;44.43;99479.69;5095280;28;20182;-68
2020/12/30 08:48:31;;;;;;;5.13;4.27;;;;;;;18.43;44.38;99470.38;5095386;28;20195;-61
2020/12/30 08:50:57;;;;;;;5.20;4.70;;;;;;;18.55;44.41;99482.34;5095163;28;20290;-60
2020/12/30 08:53:36;;;;;;;4.43;4.03;;;;;;;18.64;44.27;99474.94;5094233;28;20529;-60
2020/12/30 08:56:03;;;;;;;4.50;4.10;;;;;;;18.69;44.57;99476.03;5092601;28;20626;-60
2020/12/30 08:58:30;;;;;;;4.30;3.87;;;;;;;18.75;44.17;99479.81;5085861;28;20230;-62
2020/12/30 09:00:57;;;;;;;3.77;3.37;;;;;;;18.80;44.24;99479.19;5089859;28;20207;-67
2020/12/30 09:03:27;;;;;;;4.00;3.60;;;;;;;18.82;44.30;99479.84;5092683;28;20183;-67
2020/12/30 09:05:54;;;;;;;4.30;3.73;;;;;;;18.83;44.54;99486.94;5092966;28;20183;-66
2020/12/30 09:08:24;;;;;;;4.23;3.70;;;;;;;18.81;44.53;99480.88;5093673;28;20191;-66
2020/12/30 09:10:51;;;;;;;3.90;3.43;;;;;;;18.82;44.22;99480.69;5094638;28;20186;-65
2020/12/30 09:13:43;;;;;;;3.43;3.13;;;;;;;18.82;44.33;99482.53;5094114;28;20517;-66
2020/12/30 09:16:10;;;;;;;3.50;3.20;;;;;;;18.81;44.44;99483.59;5094519;28;20656;-67
2020/12/30 09:18:36;;;;;;;4.03;3.20;;;;;;;18.78;44.30;99486.69;5094346;28;20661;-67
2020/12/30 09:21:03;;;;;;;4.47;3.50;;;;;;;18.76;44.52;99486.06;5094354;28;20179;-67
2020/12/30 09:23:29;;;;;;;4.00;3.30;;;;;;;18.72;44.49;99499.19;5095009;28;20198;-66
2020/12/30 09:25:59;;;;;;;4.27;3.53;;;;;;;18.68;44.46;99495.16;5092980;28;20206;-65
2020/12/30 09:28:26;;;;;;;5.47;3.17;;;;;;;18.65;44.41;99504.53;5095122;28;20288;-65
2020/12/30 09:30:55;;;;;;;4.00;3.17;;;;;;;18.60;44.65;99504.28;5093525;28;20190;-64
2020/12/30 09:33:22;;;;;;;4.63;3.00;;;;;;;18.56;44.45;99505.72;5094405;28;20198;-66
2020/12/30 09:35:49;;;;;;;3.80;3.20;;;;;;;18.52;44.75;99504.44;5094116;28;20222;-66
2020/12/30 09:38:24;;;;;;;4.33;3.23;;;;;;;18.47;44.87;99514.19;5094005;28;20218;-66
2020/12/30 09:40:54;;;;;;;5.33;3.37;;;;;;;18.42;44.71;99520.19;5093182;28;20689;-66
2020/12/30 09:43:23;;;;;;;4.47;3.13;;;;;;;18.34;44.96;99517.63;5092954;28;20183;-66
2020/12/30 09:45:56;;;;;;;4.43;3.00;;;;;;;18.26;44.79;99520.47;5094002;28;20215;-65
2020/12/30 09:48:22;;;;;;;4.13;3.03;;;;;;;18.17;44.75;99524.34;5093905;28;20856;-66
2020/12/30 09:50:49;;;;;;;4.83;3.10;;;;;;;18.10;44.89;99527.81;5092821;28;20234;-65
2020/12/30 09:53:16;;;;;;;4.40;3.00;;;;;;;18.05;45.01;99533.00;5093331;28;20251;-65
2020/12/30 09:55:45;;;;;;;5.97;3.40;;;;;;;18.08;44.87;99535.31;5093762;28;20186;-66
2020/12/30 09:58:11;;;;;;;3.30;3.00;;;;;;;18.09;45.30;99528.03;5093574;28;20199;-65
2020/12/30 10:00:38;;;;;;;5.30;3.13;;;;;;;18.09;45.04;99530.72;5092185;28;20248;-65
2020/12/30 10:03:04;;;;;;;4.43;3.23;;;;;;;18.12;45.23;99532.22;5093650;28;20240;-66
2020/12/30 10:05:30;;;;;;;4.80;3.07;;;;;;;18.13;45.11;99525.75;5093728;28;20563;-65
2020/12/30 10:07:56;;;;;;;3.87;3.20;;;;;;;18.15;45.37;99534.53;5093472;28;20221;-66
2020/12/30 10:10:22;;;;;;;5.13;3.07;;;;;;;18.14;45.42;99538.28;5093399;28;20193;-65
2020/12/30 10:12:48;;;;;;;6.50;3.00;;;;;;;18.16;45.38;99536.19;5093522;28;20187;-65
2020/12/30 10:15:15;;;;;;;5.73;3.10;;;;;;;18.17;45.44;99529.75;5086841;28;20329;-66
2020/12/30 10:17:41;;;;;;;3.30;2.70;;;;;;;18.18;45.19;99540.38;5093252;28;20203;-65
2020/12/30 10:20:10;;;;;;;3.37;3.03;;;;;;;18.19;45.33;99533.09;5092308;28;20202;-65
2020/12/30 10:22:40;;;;;;;3.87;2.90;;;;;;;18.24;45.64;99538.78;5075844;28;20205;-67
2020/12/30 10:25:09;;;;;;;4.20;2.83;;;;;;;18.33;45.31;99540.31;5092340;28;20186;-68
2020/12/30 10:27:35;;;;;;;4.37;3.30;;;;;;;18.39;45.25;99543.09;5093293;28;20248;-59
2020/12/30 10:30:01;;;;;;;3.47;2.90;;;;;;;18.44;45.33;99545.19;5075172;28;20654;-59
2020/12/30 10:32:27;;;;;;;4.73;3.07;;;;;;;18.50;45.32;99544.44;5093275;28;20179;-60
2020/12/30 10:34:53;;;;;;;4.10;3.03;;;;;;;18.55;45.52;99547.38;5092240;28;20179;-60
2020/12/30 10:37:19;;;;;;;5.43;3.10;;;;;;;18.60;45.52;99549.50;5092008;28;20191;-58
2020/12/30 10:39:48;;;;;;;6.93;3.60;;;;;;;18.63;45.06;99549.13;5075090;28;20523;-58
2020/12/30 10:42:15;;;;;;;6.13;3.80;;;;;;;18.64;45.17;99554.34;5093112;28;20187;-59
2020/12/30 10:44:42;;;;;;;5.33;3.23;;;;;;;18.67;45.26;99550.41;5092345;28;20265;-59
2020/12/30 10:47:08;;;;;;;4.60;3.20;;;;;;;18.66;45.22;99555.00;5092642;28;20530;-59
2020/12/30 10:49:34;;;;;;;3.43;3.13;;;;;;;18.66;44.84;99557.72;5092700;28;20183;-59
2020/12/30 10:52:01;;;;;;;5.07;3.13;;;;;;;18.65;45.27;99547.91;5092759;28;20190;-59
2020/12/30 10:54:27;;;;;;;3.80;3.23;;;;;;;18.62;45.16;99556.44;5091524;28;20182;-60
2020/12/30 10:56:53;;;;;;;6.30;3.43;;;;;;;18.61;45.04;99562.03;5092734;28;20175;-59
2020/12/30 10:59:20;;;;;;;5.00;3.27;;;;;;;18.58;45.04;99568.66;5074997;28;20301;-59
2020/12/30 11:01:49;;;;;;;4.17;3.20;;;;;;;18.55;44.89;99562.81;5092587;28;20633;-60
2020/12/30 11:04:15;;;;;;;3.93;2.83;;;;;;;18.50;45.18;99566.13;5092876;28;20248;-59
2020/12/30 11:06:41;;;;;;;4.80;3.37;;;;;;;18.49;45.35;99569.03;5075191;28;20186;-60
2020/12/30 11:09:07;;;;;;;5.20;3.43;;;;;;;18.44;45.18;99564.16;5089336;28;20285;-59
